sensor_id;sensor_type;location;lat;lon;timestamp;P1;durP1;ratioP1;P2;durP2;ratioP2
43118;SDS011;28729;49.838;8.650;2023-03-23T00:00:31;4.97;;;1.23;;
43118;SDS011;28729;49.838;8.650;2023-03-23T00:04:33;2.72;;;1.25;;
43118;SDS011;28729;49.838;8.650;2023-03-23T00:08:36;3.08;;;0.98;;
43118;SDS011;28729;49.838;8.650;2023-03-23T00:12:46;2.15;;;1.10;;
43118;SDS011;28729;49.838;8.650;2023-03-23T00:16:51;3.75;;;1.10;;
43118;SDS011;28729;49.838;8.650;2023-03-23T00:20:56;1.50;;;0.80;;
43118;SDS011;28729;49.838;8.650;2023-03-23T00:24:58;2.97;;;1.10;;
43118;SDS011;28729;49.838;8.650;2023-03-23T00:29:01;2.17;;;0.90;;
43118;SDS011;28729;49.838;8.650;2023-03-23T00:33:05;2.22;;;1.10;;
43118;SDS011;28729;49.838;8.650;2023-03-23T00:37:07;2.35;;;1.10;;
43118;SDS011;28729;49.838;8.650;2023-03-23T00:41:09;1.55;;;0.82;;
43118;SDS011;28729;49.838;8.650;2023-03-23T00:45:12;1.67;;;0.85;;
43118;SDS011;28729;49.838;8.650;2023-03-23T00:49:16;1.60;;;0.93;;
43118;SDS011;28729;49.838;8.650;2023-03-23T00:53:20;2.20;;;0.90;;
43118;SDS011;28729;49.838;8.650;2023-03-23T00:57:22;2.20;;;1.00;;
43118;SDS011;28729;49.838;8.650;2023-03-23T01:01:25;2.97;;;1.23;;
43118;SDS011;28729;49.838;8.650;2023-03-23T01:05:27;2.35;;;1.10;;
43118;SDS011;28729;49.838;8.650;2023-03-23T01:09:33;2.95;;;1.23;;
43118;SDS011;28729;49.838;8.650;2023-03-23T01:13:37;2.40;;;1.17;;
43118;SDS011;28729;49.838;8.650;2023-03-23T01:17:39;4.18;;;1.17;;
43118;SDS011;28729;49.838;8.650;2023-03-23T01:21:42;3.25;;;1.30;;
43118;SDS011;28729;49.838;8.650;2023-03-23T01:25:43;5.97;;;1.43;;
43118;SDS011;28729;49.838;8.650;2023-03-23T01:29:46;3.92;;;1.27;;
43118;SDS011;28729;49.838;8.650;2023-03-23T01:33:48;3.13;;;1.30;;
43118;SDS011;28729;49.838;8.650;2023-03-23T01:37:54;1.70;;;1.00;;
43118;SDS011;28729;49.838;8.650;2023-03-23T01:41:56;5.50;;;1.50;;
43118;SDS011;28729;49.838;8.650;2023-03-23T01:45:59;1.77;;;1.02;;
43118;SDS011;28729;49.838;8.650;2023-03-23T01:50:01;2.33;;;1.43;;
43118;SDS011;28729;49.838;8.650;2023-03-23T01:54:04;2.95;;;1.20;;
43118;SDS011;28729;49.838;8.650;2023-03-23T01:58:09;2.83;;;1.23;;
43118;SDS011;28729;49.838;8.650;2023-03-23T02:02:14;2.55;;;1.25;;
43118;SDS011;28729;49.838;8.650;2023-03-23T02:06:19;3.55;;;1.20;;
43118;SDS011;28729;49.838;8.650;2023-03-23T02:10:40;2.40;;;1.20;;
43118;SDS011;28729;49.838;8.650;2023-03-23T02:14:52;4.72;;;1.25;;
43118;SDS011;28729;49.838;8.650;2023-03-23T02:28:04;2.50;;;1.48;;
43118;SDS011;28729;49.838;8.650;2023-03-23T02:36:19;2.05;;;1.27;;
43118;SDS011;28729;49.838;8.650;2023-03-23T02:40:30;3.05;;;1.30;;
43118;SDS011;28729;49.838;8.650;2023-03-23T02:44:35;2.42;;;1.30;;
43118;SDS011;28729;49.838;8.650;2023-03-23T02:48:40;4.30;;;1.48;;
43118;SDS011;28729;49.838;8.650;2023-03-23T02:52:45;2.08;;;1.25;;
43118;SDS011;28729;49.838;8.650;2023-03-23T02:56:50;4.28;;;1.02;;
43118;SDS011;28729;49.838;8.650;2023-03-23T03:00:57;2.20;;;1.02;;
43118;SDS011;28729;49.838;8.650;2023-03-23T03:09:15;4.57;;;1.25;;
43118;SDS011;28729;49.838;8.650;2023-03-23T03:13:50;1.75;;;0.90;;
43118;SDS011;28729;49.838;8.650;2023-03-23T03:18:22;4.97;;;0.90;;
43118;SDS011;28729;49.838;8.650;2023-03-23T03:22:40;1.50;;;0.90;;
43118;SDS011;28729;49.838;8.650;2023-03-23T03:26:46;1.98;;;1.10;;
43118;SDS011;28729;49.838;8.650;2023-03-23T03:30:57;2.95;;;1.27;;
43118;SDS011;28729;49.838;8.650;2023-03-23T03:35:02;2.45;;;1.08;;
43118;SDS011;28729;49.838;8.650;2023-03-23T03:39:05;2.03;;;1.00;;
43118;SDS011;28729;49.838;8.650;2023-03-23T03:43:10;2.40;;;1.00;;
43118;SDS011;28729;49.838;8.650;2023-03-23T03:47:12;1.00;;;0.80;;
43118;SDS011;28729;49.838;8.650;2023-03-23T03:51:14;2.08;;;0.85;;
43118;SDS011;28729;49.838;8.650;2023-03-23T03:55:20;1.63;;;0.90;;
43118;SDS011;28729;49.838;8.650;2023-03-23T03:59:24;2.30;;;1.02;;
43118;SDS011;28729;49.838;8.650;2023-03-23T04:03:45;2.33;;;1.00;;
43118;SDS011;28729;49.838;8.650;2023-03-23T04:08:03;4.78;;;1.20;;
43118;SDS011;28729;49.838;8.650;2023-03-23T04:12:10;2.38;;;1.20;;
43118;SDS011;28729;49.838;8.650;2023-03-23T04:16:27;3.38;;;1.30;;
43118;SDS011;28729;49.838;8.650;2023-03-23T04:20:32;3.00;;;1.15;;
43118;SDS011;28729;49.838;8.650;2023-03-23T04:24:36;2.33;;;1.20;;
43118;SDS011;28729;49.838;8.650;2023-03-23T04:28:58;3.38;;;1.50;;
43118;SDS011;28729;49.838;8.650;2023-03-23T04:33:31;3.90;;;0.95;;
43118;SDS011;28729;49.838;8.650;2023-03-23T04:37:56;2.05;;;1.10;;
43118;SDS011;28729;49.838;8.650;2023-03-23T04:41:59;2.42;;;1.20;;
43118;SDS011;28729;49.838;8.650;2023-03-23T04:46:26;2.53;;;1.23;;
43118;SDS011;28729;49.838;8.650;2023-03-23T04:50:33;7.50;;;1.50;;
43118;SDS011;28729;49.838;8.650;2023-03-23T04:54:47;3.50;;;1.30;;
43118;SDS011;28729;49.838;8.650;2023-03-23T04:58:49;1.92;;;1.10;;
43118;SDS011;28729;49.838;8.650;2023-03-23T05:03:07;4.30;;;1.30;;
43118;SDS011;28729;49.838;8.650;2023-03-23T05:07:10;1.98;;;1.13;;
43118;SDS011;28729;49.838;8.650;2023-03-23T05:11:19;1.92;;;1.00;;
43118;SDS011;28729;49.838;8.650;2023-03-23T05:15:23;2.30;;;0.95;;
43118;SDS011;28729;49.838;8.650;2023-03-23T05:19:25;1.85;;;0.80;;
43118;SDS011;28729;49.838;8.650;2023-03-23T05:23:31;3.78;;;0.90;;
43118;SDS011;28729;49.838;8.650;2023-03-23T05:27:44;3.10;;;0.90;;
43118;SDS011;28729;49.838;8.650;2023-03-23T05:31:56;1.50;;;1.00;;
43118;SDS011;28729;49.838;8.650;2023-03-23T05:36:02;3.15;;;1.30;;
43118;SDS011;28729;49.838;8.650;2023-03-23T05:40:16;1.27;;;1.00;;
43118;SDS011;28729;49.838;8.650;2023-03-23T05:44:24;3.42;;;1.38;;
43118;SDS011;28729;49.838;8.650;2023-03-23T05:48:30;1.70;;;1.00;;
43118;SDS011;28729;49.838;8.650;2023-03-23T05:52:33;4.60;;;1.10;;
43118;SDS011;28729;49.838;8.650;2023-03-23T05:56:40;1.63;;;1.13;;
43118;SDS011;28729;49.838;8.650;2023-03-23T06:00:55;5.68;;;1.40;;
43118;SDS011;28729;49.838;8.650;2023-03-23T06:05:02;2.40;;;1.05;;
43118;SDS011;28729;49.838;8.650;2023-03-23T06:09:08;2.13;;;1.10;;
43118;SDS011;28729;49.838;8.650;2023-03-23T06:13:35;5.78;;;1.13;;
43118;SDS011;28729;49.838;8.650;2023-03-23T06:17:42;2.70;;;1.13;;
43118;SDS011;28729;49.838;8.650;2023-03-23T06:21:46;4.35;;;1.55;;
43118;SDS011;28729;49.838;8.650;2023-03-23T06:26:23;4.10;;;1.38;;
43118;SDS011;28729;49.838;8.650;2023-03-23T06:30:34;3.28;;;1.33;;
43118;SDS011;28729;49.838;8.650;2023-03-23T06:34:38;2.38;;;1.08;;
43118;SDS011;28729;49.838;8.650;2023-03-23T06:38:54;5.53;;;1.52;;
43118;SDS011;28729;49.838;8.650;2023-03-23T06:43:05;2.80;;;1.30;;
43118;SDS011;28729;49.838;8.650;2023-03-23T06:47:32;1.77;;;1.05;;
43118;SDS011;28729;49.838;8.650;2023-03-23T06:51:34;2.90;;;1.10;;
43118;SDS011;28729;49.838;8.650;2023-03-23T06:55:38;2.40;;;1.15;;
43118;SDS011;28729;49.838;8.650;2023-03-23T06:59:41;2.08;;;1.13;;
43118;SDS011;28729;49.838;8.650;2023-03-23T07:03:45;2.55;;;1.42;;
43118;SDS011;28729;49.838;8.650;2023-03-23T07:07:53;2.35;;;1.15;;
43118;SDS011;28729;49.838;8.650;2023-03-23T07:12:06;3.33;;;1.42;;
43118;SDS011;28729;49.838;8.650;2023-03-23T07:16:18;1.63;;;1.10;;
43118;SDS011;28729;49.838;8.650;2023-03-23T07:20:22;4.65;;;1.50;;
43118;SDS011;28729;49.838;8.650;2023-03-23T07:24:24;2.80;;;1.30;;
43118;SDS011;28729;49.838;8.650;2023-03-23T07:28:38;2.45;;;1.30;;
43118;SDS011;28729;49.838;8.650;2023-03-23T07:33:10;3.47;;;1.50;;
43118;SDS011;28729;49.838;8.650;2023-03-23T07:37:16;2.17;;;1.27;;
43118;SDS011;28729;49.838;8.650;2023-03-23T07:41:23;3.35;;;1.45;;
43118;SDS011;28729;49.838;8.650;2023-03-23T07:45:28;3.63;;;1.40;;
43118;SDS011;28729;49.838;8.650;2023-03-23T07:49:32;4.15;;;1.45;;
43118;SDS011;28729;49.838;8.650;2023-03-23T07:53:48;2.45;;;1.20;;
43118;SDS011;28729;49.838;8.650;2023-03-23T07:58:15;2.45;;;1.00;;
43118;SDS011;28729;49.838;8.650;2023-03-23T08:02:27;4.90;;;1.30;;
43118;SDS011;28729;49.838;8.650;2023-03-23T08:06:56;2.00;;;1.10;;
43118;SDS011;28729;49.838;8.650;2023-03-23T08:11:14;2.13;;;1.00;;
43118;SDS011;28729;49.838;8.650;2023-03-23T08:15:29;3.75;;;1.30;;
43118;SDS011;28729;49.838;8.650;2023-03-23T08:19:44;2.58;;;1.00;;
43118;SDS011;28729;49.838;8.650;2023-03-23T08:28:56;2.40;;;0.98;;
43118;SDS011;28729;49.838;8.650;2023-03-23T08:33:25;3.55;;;0.95;;
43118;SDS011;28729;49.838;8.650;2023-03-23T08:37:51;1.80;;;0.90;;
43118;SDS011;28729;49.838;8.650;2023-03-23T08:42:12;2.17;;;1.10;;
43118;SDS011;28729;49.838;8.650;2023-03-23T08:46:29;3.53;;;1.25;;
43118;SDS011;28729;49.838;8.650;2023-03-23T08:50:55;1.63;;;0.90;;
43118;SDS011;28729;49.838;8.650;2023-03-23T08:59:46;1.80;;;1.00;;
43118;SDS011;28729;49.838;8.650;2023-03-23T09:03:54;2.03;;;1.00;;
43118;SDS011;28729;49.838;8.650;2023-03-23T09:08:16;5.13;;;1.00;;
43118;SDS011;28729;49.838;8.650;2023-03-23T09:12:21;3.15;;;1.25;;
43118;SDS011;28729;49.838;8.650;2023-03-23T09:16:25;9.88;;;1.35;;
43118;SDS011;28729;49.838;8.650;2023-03-23T09:20:28;2.42;;;0.80;;
43118;SDS011;28729;49.838;8.650;2023-03-23T09:24:32;1.60;;;0.80;;
43118;SDS011;28729;49.838;8.650;2023-03-23T09:28:36;1.73;;;1.08;;
43118;SDS011;28729;49.838;8.650;2023-03-23T09:32:38;2.15;;;1.10;;
43118;SDS011;28729;49.838;8.650;2023-03-23T09:36:43;2.95;;;1.05;;
43118;SDS011;28729;49.838;8.650;2023-03-23T09:40:55;2.70;;;1.15;;
43118;SDS011;28729;49.838;8.650;2023-03-23T09:45:10;2.40;;;1.05;;
43118;SDS011;28729;49.838;8.650;2023-03-23T09:53:45;1.70;;;1.05;;
43118;SDS011;28729;49.838;8.650;2023-03-23T09:57:53;3.45;;;1.30;;
43118;SDS011;28729;49.838;8.650;2023-03-23T10:02:07;2.22;;;1.15;;
43118;SDS011;28729;49.838;8.650;2023-03-23T10:06:18;1.75;;;0.80;;
43118;SDS011;28729;49.838;8.650;2023-03-23T10:10:31;2.28;;;0.95;;
43118;SDS011;28729;49.838;8.650;2023-03-23T10:19:20;1.70;;;1.02;;
43118;SDS011;28729;49.838;8.650;2023-03-23T10:23:39;2.08;;;0.85;;
43118;SDS011;28729;49.838;8.650;2023-03-23T10:28:05;0.85;;;0.80;;
43118;SDS011;28729;49.838;8.650;2023-03-23T10:32:15;2.53;;;1.00;;
43118;SDS011;28729;49.838;8.650;2023-03-23T10:40:33;0.68;;;0.55;;
43118;SDS011;28729;49.838;8.650;2023-03-23T10:44:39;1.98;;;1.00;;
43118;SDS011;28729;49.838;8.650;2023-03-23T10:48:43;3.67;;;0.93;;
43118;SDS011;28729;49.838;8.650;2023-03-23T10:52:47;1.85;;;0.90;;
43118;SDS011;28729;49.838;8.650;2023-03-23T10:56:54;3.60;;;1.65;;
43118;SDS011;28729;49.838;8.650;2023-03-23T11:01:02;0.85;;;0.60;;
43118;SDS011;28729;49.838;8.650;2023-03-23T11:05:12;1.50;;;0.73;;
43118;SDS011;28729;49.838;8.650;2023-03-23T11:09:32;1.27;;;0.80;;
43118;SDS011;28729;49.838;8.650;2023-03-23T11:13:41;1.85;;;0.82;;
43118;SDS011;28729;49.838;8.650;2023-03-23T11:17:55;1.42;;;0.80;;
43118;SDS011;28729;49.838;8.650;2023-03-23T11:30:23;3.10;;;1.17;;
43118;SDS011;28729;49.838;8.650;2023-03-23T11:38:36;1.65;;;1.05;;
43118;SDS011;28729;49.838;8.650;2023-03-23T11:42:43;1.77;;;1.00;;
43118;SDS011;28729;49.838;8.650;2023-03-23T11:51:20;2.42;;;0.90;;
43118;SDS011;28729;49.838;8.650;2023-03-23T11:55:50;2.17;;;0.93;;
43118;SDS011;28729;49.838;8.650;2023-03-23T11:59:57;2.90;;;0.77;;
43118;SDS011;28729;49.838;8.650;2023-03-23T12:04:20;1.60;;;0.80;;
43118;SDS011;28729;49.838;8.650;2023-03-23T12:13:51;2.35;;;0.80;;
43118;SDS011;28729;49.838;8.650;2023-03-23T12:35:48;1.90;;;0.70;;
43118;SDS011;28729;49.838;8.650;2023-03-23T12:44:48;2.72;;;0.80;;
43118;SDS011;28729;49.838;8.650;2023-03-23T12:53:13;2.08;;;0.80;;
43118;SDS011;28729;49.838;8.650;2023-03-23T12:57:20;1.60;;;0.75;;
43118;SDS011;28729;49.838;8.650;2023-03-23T13:01:30;1.38;;;0.80;;
43118;SDS011;28729;49.838;8.650;2023-03-23T13:09:50;0.65;;;0.55;;
43118;SDS011;28729;49.838;8.650;2023-03-23T13:14:00;1.67;;;0.80;;
43118;SDS011;28729;49.838;8.650;2023-03-23T13:26:58;2.67;;;1.33;;
43118;SDS011;28729;49.838;8.650;2023-03-23T13:35:33;2.28;;;1.15;;
43118;SDS011;28729;49.838;8.650;2023-03-23T13:39:52;1.60;;;0.80;;
43118;SDS011;28729;49.838;8.650;2023-03-23T13:44:05;1.77;;;0.70;;
43118;SDS011;28729;49.838;8.650;2023-03-23T13:48:23;1.77;;;0.80;;
43118;SDS011;28729;49.838;8.650;2023-03-23T13:57:00;1.25;;;0.70;;
43118;SDS011;28729;49.838;8.650;2023-03-23T14:01:13;0.80;;;0.60;;
43118;SDS011;28729;49.838;8.650;2023-03-23T14:09:30;1.02;;;0.50;;
43118;SDS011;28729;49.838;8.650;2023-03-23T14:17:45;0.82;;;0.60;;
43118;SDS011;28729;49.838;8.650;2023-03-23T14:21:57;1.05;;;0.40;;
43118;SDS011;28729;49.838;8.650;2023-03-23T14:26:08;1.08;;;0.57;;
43118;SDS011;28729;49.838;8.650;2023-03-23T14:30:14;1.25;;;0.68;;
43118;SDS011;28729;49.838;8.650;2023-03-23T14:34:28;1.27;;;0.52;;
43118;SDS011;28729;49.838;8.650;2023-03-23T14:38:34;1.05;;;0.50;;
43118;SDS011;28729;49.838;8.650;2023-03-23T14:42:37;2.55;;;0.75;;
43118;SDS011;28729;49.838;8.650;2023-03-23T14:46:39;1.52;;;0.77;;
43118;SDS011;28729;49.838;8.650;2023-03-23T14:50:49;1.35;;;0.60;;
43118;SDS011;28729;49.838;8.650;2023-03-23T14:54:53;2.42;;;0.63;;
43118;SDS011;28729;49.838;8.650;2023-03-23T14:59:02;1.70;;;0.55;;
43118;SDS011;28729;49.838;8.650;2023-03-23T15:03:09;2.28;;;0.80;;
43118;SDS011;28729;49.838;8.650;2023-03-23T15:07:15;1.92;;;0.70;;
43118;SDS011;28729;49.838;8.650;2023-03-23T15:11:25;0.52;;;0.50;;
43118;SDS011;28729;49.838;8.650;2023-03-23T15:15:33;2.42;;;0.60;;
43118;SDS011;28729;49.838;8.650;2023-03-23T15:19:40;1.23;;;0.88;;
43118;SDS011;28729;49.838;8.650;2023-03-23T15:23:44;2.05;;;1.00;;
43118;SDS011;28729;49.838;8.650;2023-03-23T15:31:57;1.38;;;0.80;;
43118;SDS011;28729;49.838;8.650;2023-03-23T15:36:06;1.52;;;0.88;;
43118;SDS011;28729;49.838;8.650;2023-03-23T15:40:20;3.03;;;1.13;;
43118;SDS011;28729;49.838;8.650;2023-03-23T15:44:27;1.48;;;0.98;;
43118;SDS011;28729;49.838;8.650;2023-03-23T15:53:19;2.88;;;0.80;;
43118;SDS011;28729;49.838;8.650;2023-03-23T15:57:29;1.17;;;0.73;;
43118;SDS011;28729;49.838;8.650;2023-03-23T16:01:31;2.38;;;0.63;;
43118;SDS011;28729;49.838;8.650;2023-03-23T16:05:33;1.57;;;0.83;;
43118;SDS011;28729;49.838;8.650;2023-03-23T16:09:38;1.98;;;0.82;;
43118;SDS011;28729;49.838;8.650;2023-03-23T16:13:45;1.75;;;0.90;;
43118;SDS011;28729;49.838;8.650;2023-03-23T16:17:49;0.85;;;0.65;;
43118;SDS011;28729;49.838;8.650;2023-03-23T16:21:51;1.33;;;0.70;;
43118;SDS011;28729;49.838;8.650;2023-03-23T16:25:53;2.50;;;0.90;;
43118;SDS011;28729;49.838;8.650;2023-03-23T16:29:57;2.10;;;0.82;;
43118;SDS011;28729;49.838;8.650;2023-03-23T16:34:05;1.63;;;0.77;;
43118;SDS011;28729;49.838;8.650;2023-03-23T16:38:09;1.25;;;0.70;;
43118;SDS011;28729;49.838;8.650;2023-03-23T16:42:16;1.73;;;0.98;;
43118;SDS011;28729;49.838;8.650;2023-03-23T16:46:18;1.58;;;0.93;;
43118;SDS011;28729;49.838;8.650;2023-03-23T16:50:20;2.73;;;0.70;;
43118;SDS011;28729;49.838;8.650;2023-03-23T16:54:22;1.13;;;0.80;;
43118;SDS011;28729;49.838;8.650;2023-03-23T16:58:30;2.53;;;1.25;;
43118;SDS011;28729;49.838;8.650;2023-03-23T17:02:33;1.85;;;0.90;;
43118;SDS011;28729;49.838;8.650;2023-03-23T17:06:39;2.17;;;0.88;;
43118;SDS011;28729;49.838;8.650;2023-03-23T17:10:45;1.38;;;1.13;;
43118;SDS011;28729;49.838;8.650;2023-03-23T17:14:49;2.03;;;0.90;;
43118;SDS011;28729;49.838;8.650;2023-03-23T17:18:52;2.60;;;1.10;;
43118;SDS011;28729;49.838;8.650;2023-03-23T17:22:54;1.52;;;0.90;;
43118;SDS011;28729;49.838;8.650;2023-03-23T17:26:56;2.22;;;0.90;;
43118;SDS011;28729;49.838;8.650;2023-03-23T17:30:57;2.83;;;1.20;;
43118;SDS011;28729;49.838;8.650;2023-03-23T17:35:01;4.33;;;1.33;;
43118;SDS011;28729;49.838;8.650;2023-03-23T17:39:03;2.85;;;0.98;;
43118;SDS011;28729;49.838;8.650;2023-03-23T17:43:05;6.30;;;2.20;;
43118;SDS011;28729;49.838;8.650;2023-03-23T17:47:09;3.25;;;1.52;;
43118;SDS011;28729;49.838;8.650;2023-03-23T17:51:11;3.17;;;1.38;;
43118;SDS011;28729;49.838;8.650;2023-03-23T17:55:14;2.07;;;0.90;;
43118;SDS011;28729;49.838;8.650;2023-03-23T17:59:16;3.03;;;1.42;;
43118;SDS011;28729;49.838;8.650;2023-03-23T18:03:18;3.63;;;1.10;;
43118;SDS011;28729;49.838;8.650;2023-03-23T18:07:20;2.00;;;1.20;;
43118;SDS011;28729;49.838;8.650;2023-03-23T18:11:23;2.88;;;1.60;;
43118;SDS011;28729;49.838;8.650;2023-03-23T18:15:26;2.55;;;1.52;;
43118;SDS011;28729;49.838;8.650;2023-03-23T18:19:30;2.00;;;1.30;;
43118;SDS011;28729;49.838;8.650;2023-03-23T18:23:34;2.15;;;1.20;;
43118;SDS011;28729;49.838;8.650;2023-03-23T18:27:49;2.42;;;1.05;;
43118;SDS011;28729;49.838;8.650;2023-03-23T18:31:51;3.23;;;1.33;;
43118;SDS011;28729;49.838;8.650;2023-03-23T18:35:57;2.38;;;1.30;;
43118;SDS011;28729;49.838;8.650;2023-03-23T18:40:00;2.05;;;1.15;;
43118;SDS011;28729;49.838;8.650;2023-03-23T18:44:02;3.45;;;1.50;;
43118;SDS011;28729;49.838;8.650;2023-03-23T18:48:06;4.25;;;1.95;;
43118;SDS011;28729;49.838;8.650;2023-03-23T18:52:09;3.20;;;1.60;;
43118;SDS011;28729;49.838;8.650;2023-03-23T18:56:12;1.77;;;1.50;;
43118;SDS011;28729;49.838;8.650;2023-03-23T19:00:16;5.68;;;2.10;;
43118;SDS011;28729;49.838;8.650;2023-03-23T19:04:19;5.45;;;2.35;;
43118;SDS011;28729;49.838;8.650;2023-03-23T19:08:23;6.47;;;2.08;;
43118;SDS011;28729;49.838;8.650;2023-03-23T19:12:25;3.80;;;2.10;;
43118;SDS011;28729;49.838;8.650;2023-03-23T19:16:27;5.00;;;2.27;;
43118;SDS011;28729;49.838;8.650;2023-03-23T19:20:31;4.57;;;2.30;;
43118;SDS011;28729;49.838;8.650;2023-03-23T19:24:55;4.07;;;2.30;;
43118;SDS011;28729;49.838;8.650;2023-03-23T19:28:57;3.92;;;2.10;;
43118;SDS011;28729;49.838;8.650;2023-03-23T19:33:02;5.57;;;2.60;;
43118;SDS011;28729;49.838;8.650;2023-03-23T19:37:05;3.85;;;2.55;;
43118;SDS011;28729;49.838;8.650;2023-03-23T19:41:11;4.28;;;1.85;;
43118;SDS011;28729;49.838;8.650;2023-03-23T19:45:15;4.22;;;1.90;;
43118;SDS011;28729;49.838;8.650;2023-03-23T19:49:17;7.57;;;2.22;;
43118;SDS011;28729;49.838;8.650;2023-03-23T19:53:20;5.90;;;2.30;;
43118;SDS011;28729;49.838;8.650;2023-03-23T19:57:23;3.95;;;2.30;;
43118;SDS011;28729;49.838;8.650;2023-03-23T20:01:25;4.50;;;2.13;;
43118;SDS011;28729;49.838;8.650;2023-03-23T20:05:30;4.60;;;2.22;;
43118;SDS011;28729;49.838;8.650;2023-03-23T20:09:37;4.53;;;2.50;;
43118;SDS011;28729;49.838;8.650;2023-03-23T20:13:39;6.43;;;2.90;;
43118;SDS011;28729;49.838;8.650;2023-03-23T20:17:41;6.82;;;2.90;;
43118;SDS011;28729;49.838;8.650;2023-03-23T20:21:44;5.60;;;2.97;;
43118;SDS011;28729;49.838;8.650;2023-03-23T20:25:46;5.80;;;3.33;;
43118;SDS011;28729;49.838;8.650;2023-03-23T20:29:50;5.20;;;3.00;;
43118;SDS011;28729;49.838;8.650;2023-03-23T20:33:55;6.55;;;3.13;;
43118;SDS011;28729;49.838;8.650;2023-03-23T20:38:02;4.93;;;2.50;;
43118;SDS011;28729;49.838;8.650;2023-03-23T20:42:09;5.13;;;2.65;;
43118;SDS011;28729;49.838;8.650;2023-03-23T20:46:11;4.15;;;2.83;;
43118;SDS011;28729;49.838;8.650;2023-03-23T20:50:13;4.97;;;3.00;;
43118;SDS011;28729;49.838;8.650;2023-03-23T20:54:16;5.77;;;3.10;;
43118;SDS011;28729;49.838;8.650;2023-03-23T20:58:20;4.65;;;2.53;;
43118;SDS011;28729;49.838;8.650;2023-03-23T21:02:22;5.93;;;2.75;;
43118;SDS011;28729;49.838;8.650;2023-03-23T21:06:26;5.47;;;2.85;;
43118;SDS011;28729;49.838;8.650;2023-03-23T21:10:29;5.80;;;3.00;;
43118;SDS011;28729;49.838;8.650;2023-03-23T21:14:32;4.40;;;2.23;;
43118;SDS011;28729;49.838;8.650;2023-03-23T21:18:34;3.90;;;2.35;;
43118;SDS011;28729;49.838;8.650;2023-03-23T21:22:35;4.55;;;2.30;;
43118;SDS011;28729;49.838;8.650;2023-03-23T21:26:38;5.13;;;2.33;;
43118;SDS011;28729;49.838;8.650;2023-03-23T21:30:40;3.42;;;2.13;;
43118;SDS011;28729;49.838;8.650;2023-03-23T21:34:46;4.28;;;2.55;;
43118;SDS011;28729;49.838;8.650;2023-03-23T21:38:48;5.28;;;2.47;;
43118;SDS011;28729;49.838;8.650;2023-03-23T21:42:50;4.22;;;2.63;;
43118;SDS011;28729;49.838;8.650;2023-03-23T21:46:53;3.85;;;2.30;;
43118;SDS011;28729;49.838;8.650;2023-03-23T21:50:55;4.47;;;2.15;;
43118;SDS011;28729;49.838;8.650;2023-03-23T21:54:57;4.50;;;2.50;;
43118;SDS011;28729;49.838;8.650;2023-03-23T21:58:59;4.90;;;2.72;;
43118;SDS011;28729;49.838;8.650;2023-03-23T22:03:02;7.18;;;2.63;;
43118;SDS011;28729;49.838;8.650;2023-03-23T22:07:05;4.13;;;2.35;;
43118;SDS011;28729;49.838;8.650;2023-03-23T22:11:10;5.22;;;2.28;;
43118;SDS011;28729;49.838;8.650;2023-03-23T22:15:23;4.45;;;2.40;;
43118;SDS011;28729;49.838;8.650;2023-03-23T22:19:28;5.93;;;2.42;;
43118;SDS011;28729;49.838;8.650;2023-03-23T22:23:30;4.00;;;2.30;;
43118;SDS011;28729;49.838;8.650;2023-03-23T22:27:31;4.45;;;2.42;;
43118;SDS011;28729;49.838;8.650;2023-03-23T22:31:33;6.13;;;2.40;;
43118;SDS011;28729;49.838;8.650;2023-03-23T22:35:35;4.47;;;2.20;;
43118;SDS011;28729;49.838;8.650;2023-03-23T22:39:37;5.10;;;2.25;;
43118;SDS011;28729;49.838;8.650;2023-03-23T22:43:39;4.18;;;2.13;;
43118;SDS011;28729;49.838;8.650;2023-03-23T22:47:41;4.78;;;1.92;;
43118;SDS011;28729;49.838;8.650;2023-03-23T22:51:43;5.77;;;3.40;;
43118;SDS011;28729;49.838;8.650;2023-03-23T22:55:46;6.57;;;2.50;;
43118;SDS011;28729;49.838;8.650;2023-03-23T22:59:50;5.28;;;1.98;;
43118;SDS011;28729;49.838;8.650;2023-03-23T23:03:51;3.50;;;1.90;;
43118;SDS011;28729;49.838;8.650;2023-03-23T23:07:53;4.63;;;2.60;;
43118;SDS011;28729;49.838;8.650;2023-03-23T23:11:55;4.38;;;2.40;;
43118;SDS011;28729;49.838;8.650;2023-03-23T23:15:57;5.20;;;2.97;;
43118;SDS011;28729;49.838;8.650;2023-03-23T23:20:01;2.97;;;2.00;;
43118;SDS011;28729;49.838;8.650;2023-03-23T23:24:06;4.43;;;2.35;;
43118;SDS011;28729;49.838;8.650;2023-03-23T23:28:08;3.22;;;2.00;;
43118;SDS011;28729;49.838;8.650;2023-03-23T23:32:09;6.53;;;2.38;;
43118;SDS011;28729;49.838;8.650;2023-03-23T23:36:11;5.20;;;2.63;;
43118;SDS011;28729;49.838;8.650;2023-03-23T23:40:15;5.90;;;2.88;;
43118;SDS011;28729;49.838;8.650;2023-03-23T23:44:17;4.50;;;2.92;;
43118;SDS011;28729;49.838;8.650;2023-03-23T23:48:19;5.95;;;2.80;;
43118;SDS011;28729;49.838;8.650;2023-03-23T23:52:21;4.93;;;2.65;;
43118;SDS011;28729;49.838;8.650;2023-03-23T23:56:23;4.93;;;2.45;;
